Time;durP1;ratioP1;P1;durP2;ratioP2;P2;SDS_P1;SDS_P2;PMS_P1;PMS_P2;Temp;Humidity;BMP_temperature;BMP_pressure;BME280_temperature;BME280_humidity;BME280_pressure;Samples;Min_cycle;Max_cycle;Signal;HPM_P1;HPM_P2
2021/12/03 04:03:05;;;;;;;115.03;46.67;;;1.10;95.80;;;;;;5111472;27;20770;-38
2021/12/03 04:05:31;;;;;;;113.57;44.72;;;1.30;95.80;;;;;;5110629;28;20032;-39
2021/12/03 04:07:57;;;;;;;117.22;44.97;;;1.30;95.70;;;;;;5110523;28;20051;-39
2021/12/03 04:10:23;;;;;;;122.03;45.25;;;1.30;95.70;;;;;;5110718;28;20153;-39
2021/12/03 04:12:48;;;;;;;124.00;50.50;;;1.40;95.70;;;;;;5092303;28;20122;-38
2021/12/03 04:15:15;;;;;;;81.03;31.80;;;1.40;95.60;;;;;;5110762;28;20069;-41
2021/12/03 04:17:41;;;;;;;117.25;46.25;;;1.30;95.30;;;;;;5110604;28;20102;-38
2021/12/03 04:20:10;;;;;;;126.82;46.28;;;1.40;95.30;;;;;;5110532;28;20463;-38
2021/12/03 04:22:36;;;;;;;115.10;45.50;;;1.50;95.40;;;;;;5110425;28;20028;-38
2021/12/03 04:25:06;;;;;;;117.13;47.00;;;1.40;95.30;;;;;;5110430;28;20028;-38
2021/12/03 04:27:32;;;;;;;110.93;43.85;;;1.40;95.20;;;;;;5109273;28;20043;-39
2021/12/03 04:29:57;;;;;;;86.97;31.77;;;1.50;95.10;;;;;;5110169;28;20016;-39
2021/12/03 04:32:25;;;;;;;129.65;43.60;;;1.40;95.00;;;;;;5110261;28;20035;-40
2021/12/03 04:34:52;;;;;;;106.75;42.85;;;1.50;95.10;;;;;;5110313;28;20035;-39
2021/12/03 04:37:18;;;;;;;99.18;41.50;;;1.50;95.10;;;;;;5109983;28;20445;-41
2021/12/03 04:39:44;;;;;;;99.50;39.78;;;1.70;95.10;;;;;;5110320;28;20059;-40
2021/12/03 04:42:10;;;;;;;69.35;32.83;;;1.60;94.90;;;;;;5110160;28;20080;-39
2021/12/03 04:44:37;;;;;;;99.97;39.45;;;1.60;94.80;;;;;;5108817;28;20101;-39
2021/12/03 04:47:03;;;;;;;98.63;36.92;;;1.60;94.80;;;;;;5109864;28;20024;-39
2021/12/03 04:49:29;;;;;;;94.00;39.47;;;1.50;94.60;;;;;;5110116;28;20038;-39
2021/12/03 04:51:55;;;;;;;88.72;35.33;;;1.60;94.70;;;;;;5108793;28;20378;-40
2021/12/03 04:54:21;;;;;;;91.70;35.47;;;1.70;94.50;;;;;;5109873;28;20031;-39
2021/12/03 04:56:47;;;;;;;71.13;28.60;;;1.60;94.40;;;;;;5109683;28;20032;-39
2021/12/03 04:59:13;;;;;;;76.97;30.50;;;1.70;94.60;;;;;;5109669;28;20026;-40
2021/12/03 05:01:40;;;;;;;75.85;31.58;;;1.70;94.50;;;;;;5107961;28;20044;-39
2021/12/03 05:04:05;;;;;;;79.45;32.05;;;1.60;94.50;;;;;;5110154;28;20345;-40
2021/12/03 05:06:52;;;;;;;98.95;35.83;;;1.80;94.70;;;;;;5109371;28;20047;-38
2021/12/03 05:09:16;;;;;;;71.80;33.30;;;1.80;94.50;;;;;;5109236;28;20063;-38
2021/12/03 05:11:42;;;;;;;91.75;35.55;;;1.80;94.50;;;;;;5109276;28;20070;-38
2021/12/03 05:14:08;;;;;;;83.03;32.60;;;1.80;94.50;;;;;;5097383;28;20060;-39
2021/12/03 05:16:34;;;;;;;74.50;30.75;;;1.80;94.00;;;;;;5095999;28;20073;-39
2021/12/03 05:18:59;;;;;;;67.13;29.08;;;1.80;94.20;;;;;;5095323;28;20024;-39
2021/12/03 05:21:25;;;;;;;76.40;31.48;;;1.80;94.00;;;;;;5095296;28;20069;-38
2021/12/03 05:23:51;;;;;;;70.32;30.73;;;1.80;94.10;;;;;;5095227;28;20051;-39
2021/12/03 05:26:16;;;;;;;57.40;24.77;;;1.90;94.20;;;;;;5095458;28;20111;-38
2021/12/03 05:28:42;;;;;;;66.60;27.52;;;1.90;94.00;;;;;;5095253;28;20020;-38
2021/12/03 05:31:08;;;;;;;69.85;30.85;;;1.80;93.90;;;;;;5095799;28;20073;-38
2021/12/03 05:33:34;;;;;;;75.72;30.98;;;1.90;93.90;;;;;;5095086;28;20110;-39
2021/12/03 05:36:00;;;;;;;61.03;29.55;;;1.90;93.90;;;;;;5095510;28;20078;-38
2021/12/03 05:38:25;;;;;;;43.22;20.10;;;1.80;93.60;;;;;;5095245;28;20028;-38
2021/12/03 05:40:51;;;;;;;58.53;27.50;;;1.80;93.80;;;;;;5095261;28;20024;-38
2021/12/03 05:43:17;;;;;;;58.92;25.08;;;1.80;93.90;;;;;;5095355;28;20027;-38
2021/12/03 05:45:44;;;;;;;64.43;27.73;;;1.90;94.00;;;;;;5095165;28;20051;-38
2021/12/03 05:48:09;;;;;;;59.55;27.13;;;1.90;93.50;;;;;;5095270;28;20019;-39
2021/12/03 05:50:35;;;;;;;55.35;26.95;;;1.90;93.40;;;;;;5095186;28;20028;-38
2021/12/03 05:53:01;;;;;;;47.03;25.80;;;2.00;93.40;;;;;;5094839;28;20047;-39
2021/12/03 05:55:27;;;;;;;51.60;27.80;;;2.00;93.40;;;;;;5094978;28;20027;-39
2021/12/03 05:57:53;;;;;;;43.58;19.73;;;2.00;92.90;;;;;;5095432;28;20111;-39
2021/12/03 06:00:26;;;;;;;52.40;25.52;;;2.00;93.00;;;;;;5094917;28;20107;-38
2021/12/03 06:02:52;;;;;;;54.92;27.42;;;1.90;93.00;;;;;;5094448;28;20048;-38
2021/12/03 06:05:21;;;;;;;52.05;26.13;;;2.00;93.20;;;;;;5094919;28;20031;-38
2021/12/03 06:07:47;;;;;;;53.95;26.77;;;2.00;93.20;;;;;;5094960;28;20035;-38
2021/12/03 06:10:12;;;;;;;42.75;24.38;;;2.10;93.40;;;;;;5095043;28;20023;-39
2021/12/03 06:12:39;;;;;;;51.28;24.30;;;2.10;93.10;;;;;;5096271;28;20430;-38
2021/12/03 06:15:08;;;;;;;55.58;28.75;;;2.10;92.80;;;;;;5095937;28;20036;-38
2021/12/03 06:17:34;;;;;;;44.08;22.83;;;2.10;93.20;;;;;;5094781;28;20110;-38
2021/12/03 06:19:59;;;;;;;49.42;25.23;;;2.10;93.10;;;;;;5095792;28;20058;-38
2021/12/03 06:22:25;;;;;;;45.35;23.77;;;2.00;93.20;;;;;;5094426;28;20028;-38
2021/12/03 06:24:51;;;;;;;47.10;22.17;;;2.10;93.20;;;;;;5093708;28;20023;-39
2021/12/03 06:27:19;;;;;;;51.03;25.00;;;2.10;93.20;;;;;;5094189;28;20031;-38
2021/12/03 06:29:45;;;;;;;50.45;27.52;;;2.00;93.00;;;;;;5076299;28;20044;-38
2021/12/03 06:32:10;;;;;;;48.85;24.65;;;2.10;93.00;;;;;;5094523;28;20057;-39
2021/12/03 06:34:37;;;;;;;54.03;25.48;;;2.20;93.00;;;;;;5094523;28;20372;-39
2021/12/03 06:37:03;;;;;;;60.47;26.85;;;2.10;93.10;;;;;;5092966;28;20031;-39
2021/12/03 06:39:29;;;;;;;50.33;25.88;;;2.10;93.00;;;;;;5094958;28;20024;-39
2021/12/03 06:41:55;;;;;;;54.80;24.58;;;2.10;93.10;;;;;;5092954;28;20095;-39
2021/12/03 06:44:22;;;;;;;60.00;27.33;;;2.10;93.20;;;;;;5093917;28;20467;-39
2021/12/03 06:46:48;;;;;;;59.53;27.98;;;2.10;93.10;;;;;;5094557;28;20103;-38
2021/12/03 06:49:14;;;;;;;58.13;27.95;;;2.10;93.20;;;;;;5093460;28;20056;-39
2021/12/03 06:51:42;;;;;;;58.20;28.25;;;2.20;93.20;;;;;;5093989;28;20038;-38
2021/12/03 06:54:10;;;;;;;59.97;23.15;;;2.20;93.20;;;;;;5093709;28;20512;-38
2021/12/03 06:56:48;;;;;;;53.78;26.13;;;2.20;93.10;;;;;;5093100;28;20024;-39
2021/12/03 06:59:15;;;;;;;42.83;22.30;;;2.20;93.00;;;;;;5092296;28;20032;-39
2021/12/03 07:01:41;;;;;;;57.38;27.85;;;2.20;93.20;;;;;;5093007;28;20150;-38
2021/12/03 07:04:07;;;;;;;58.92;26.40;;;2.30;93.20;;;;;;5075112;28;20036;-39
2021/12/03 07:06:32;;;;;;;61.25;31.05;;;2.30;93.10;;;;;;5093829;28;20050;-38
2021/12/03 07:08:58;;;;;;;61.13;29.83;;;2.30;93.20;;;;;;5093417;28;20019;-38
2021/12/03 07:11:24;;;;;;;63.35;24.17;;;2.30;93.00;;;;;;5092104;28;20024;-38
2021/12/03 07:13:49;;;;;;;55.30;27.98;;;2.30;93.00;;;;;;5093528;28;20032;-38
2021/12/03 07:16:15;;;;;;;63.80;29.70;;;2.30;93.10;;;;;;5093468;28;20062;-40
2021/12/03 07:18:43;;;;;;;73.38;34.88;;;2.30;93.10;;;;;;5091453;28;20024;-39
2021/12/03 07:21:09;;;;;;;47.65;25.52;;;2.40;93.30;;;;;;5092888;28;20073;-39
2021/12/03 07:23:34;;;;;;;55.90;24.65;;;2.40;93.10;;;;;;5093012;28;20016;-39
2021/12/03 07:26:02;;;;;;;58.33;26.92;;;2.40;93.20;;;;;;5093511;28;20022;-38
2021/12/03 07:28:28;;;;;;;62.95;25.98;;;2.40;93.30;;;;;;5092862;28;20502;-38
2021/12/03 07:30:53;;;;;;;47.72;22.55;;;2.40;93.20;;;;;;5092655;28;20020;-38
2021/12/03 07:33:19;;;;;;;61.05;26.88;;;2.40;93.30;;;;;;5093384;28;20042;-38
2021/12/03 07:35:46;;;;;;;68.60;28.95;;;2.40;93.30;;;;;;5092686;28;20457;-39
2021/12/03 07:38:14;;;;;;;66.53;23.50;;;2.40;93.30;;;;;;5093066;28;20075;-39
2021/12/03 07:40:44;;;;;;;43.45;20.80;;;2.40;93.30;;;;;;5092444;28;20020;-39
2021/12/03 07:43:10;;;;;;;67.57;25.45;;;2.40;93.40;;;;;;5092518;28;20475;-39
2021/12/03 07:45:36;;;;;;;61.35;24.63;;;2.50;93.20;;;;;;5092283;28;20107;-38
2021/12/03 07:48:02;;;;;;;50.22;22.85;;;2.50;93.00;;;;;;5092608;28;20411;-39
2021/12/03 07:50:28;;;;;;;59.55;25.77;;;2.60;92.90;;;;;;5091488;28;20024;-39
2021/12/03 07:52:54;;;;;;;58.15;24.40;;;2.60;92.90;;;;;;5092675;28;20385;-39
2021/12/03 07:55:19;;;;;;;58.50;26.13;;;2.70;92.70;;;;;;5092432;28;20028;-40
2021/12/03 07:57:45;;;;;;;55.92;26.25;;;2.60;92.60;;;;;;5090964;28;20058;-40
2021/12/03 08:00:11;;;;;;;49.63;21.13;;;2.70;92.50;;;;;;5092144;28;20031;-40
2021/12/03 14:09:06;;;;;;;5.20;3.42;;;5.10;76.40;;;;;;5134767;28;20030;-39
2021/12/03 14:24:23;;;;;;;5.72;1.92;;;5.00;75.30;;;;;;5132326;27;20023;-39
2021/12/03 14:52:08;;;;;;;3.95;2.47;;;4.80;76.40;;;;;;5131415;27;20035;-51
2021/12/03 14:57:43;;;;;;;11.45;2.70;;;4.60;82.30;;;;;;5131163;28;20409;-50
2021/12/03 15:05:56;;;;;;;4.53;3.13;;;4.40;80.60;;;;;;5131565;27;20020;-50
2021/12/03 15:08:37;;;;;;;5.95;2.83;;;4.30;81.50;;;;;;5130925;27;20046;-49
2021/12/03 15:32:10;;;;;;;9.50;2.97;;;3.70;87.40;;;;;;5116091;28;20030;-48
2021/12/03 16:03:56;;;;;;;16.15;3.78;;;3.30;91.40;;;;;;5116295;28;20027;-54
2021/12/03 16:06:32;;;;;;;10.27;5.25;;;3.30;91.70;;;;;;5113863;28;20151;-52
2021/12/03 16:09:06;;;;;;;6.72;3.83;;;3.30;92.20;;;;;;5115511;28;20562;-49
2021/12/03 16:11:39;;;;;;;11.70;6.13;;;3.30;92.30;;;;;;5115843;28;20492;-49
2021/12/03 16:51:51;;;;;;;12.75;7.63;;;3.20;93.60;;;;;;5114744;28;20035;-52
2021/12/03 16:54:23;;;;;;;10.10;6.70;;;3.20;93.70;;;;;;5114146;28;20042;-50
2021/12/03 16:56:51;;;;;;;11.90;5.90;;;3.20;93.70;;;;;;5114389;28;20054;-49
2021/12/03 16:59:18;;;;;;;17.40;7.95;;;3.20;93.60;;;;;;5114087;28;20055;-51
2021/12/03 17:10:04;;;;;;;15.80;8.27;;;3.10;93.80;;;;;;5071910;28;20020;-50
2021/12/03 17:18:28;;;;;;;13.43;7.88;;;3.10;94.20;;;;;;5113912;28;20019;-49
2021/12/03 17:52:44;;;;;;;13.00;5.90;;;3.10;94.90;;;;;;5113562;28;20105;-50
2021/12/03 17:58:02;;;;;;;14.43;7.63;;;3.10;94.70;;;;;;5113493;28;20046;-52
2021/12/03 18:03:13;;;;;;;17.50;7.82;;;3.20;94.50;;;;;;5112994;28;20054;-49
2021/12/03 18:08:32;;;;;;;13.82;7.15;;;3.10;94.40;;;;;;5113020;28;20023;-49
2021/12/03 18:14:22;;;;;;;18.00;7.68;;;3.10;94.40;;;;;;5113073;28;20020;-49
2021/12/03 18:43:18;;;;;;;13.82;6.43;;;3.20;94.80;;;;;;5113595;28;20055;-52
2021/12/03 18:46:43;;;;;;;12.15;6.03;;;3.30;94.10;;;;;;5111982;28;20309;-49
2021/12/03 18:51:28;;;;;;;16.45;7.80;;;3.30;93.90;;;;;;5117253;28;20482;-49
2021/12/03 18:56:21;;;;;;;18.50;7.82;;;3.40;93.60;;;;;;5117170;28;20547;-50
2021/12/03 18:58:57;;;;;;;8.43;5.25;;;3.50;93.40;;;;;;5115130;28;20042;-50
2021/12/03 19:01:27;;;;;;;9.88;7.32;;;3.40;93.30;;;;;;5116536;28;20093;-52
2021/12/03 19:06:27;;;;;;;13.10;6.72;;;3.50;93.40;;;;;;5117072;28;20036;-51
2021/12/03 19:09:04;;;;;;;10.38;6.13;;;3.50;93.30;;;;;;5116878;28;20511;-49
2021/12/03 19:11:35;;;;;;;12.45;6.80;;;3.50;93.20;;;;;;5116468;27;20039;-49
2021/12/03 19:14:00;;;;;;;16.60;7.28;;;3.50;93.10;;;;;;5116728;28;20027;-49
2021/12/03 19:16:27;;;;;;;13.15;7.00;;;3.50;92.90;;;;;;5117130;28;20443;-49
2021/12/03 19:18:55;;;;;;;12.93;6.35;;;3.50;93.00;;;;;;5116454;28;20024;-49
2021/12/03 19:21:24;;;;;;;17.50;8.38;;;3.60;92.80;;;;;;5116254;28;20023;-48
2021/12/03 19:23:52;;;;;;;9.73;6.88;;;3.60;92.60;;;;;;5116841;28;20015;-51
2021/12/03 19:26:19;;;;;;;11.70;6.78;;;3.60;92.80;;;;;;5116976;28;20432;-53
2021/12/03 19:28:46;;;;;;;9.82;5.85;;;3.60;92.70;;;;;;5117097;28;20106;-50
2021/12/03 19:31:12;;;;;;;10.20;6.25;;;3.60;92.80;;;;;;5116864;28;20438;-48
2021/12/03 19:33:40;;;;;;;14.07;7.35;;;3.60;92.70;;;;;;5116219;28;20058;-50
2021/12/03 19:36:07;;;;;;;7.72;5.47;;;3.70;92.70;;;;;;5115876;28;20523;-50
2021/12/03 19:38:37;;;;;;;12.32;7.95;;;3.70;92.50;;;;;;5115866;28;20033;-48
2021/12/03 19:41:12;;;;;;;10.57;6.28;;;3.70;92.40;;;;;;5114768;28;20016;-50
2021/12/03 19:43:43;;;;;;;13.50;7.30;;;3.70;92.40;;;;;;5116062;28;20048;-52
2021/12/03 19:46:13;;;;;;;8.70;5.90;;;3.60;92.50;;;;;;5115593;28;20035;-50
2021/12/03 19:48:49;;;;;;;9.93;6.90;;;3.70;92.20;;;;;;5115511;28;20069;-48
2021/12/03 19:51:16;;;;;;;10.52;7.47;;;3.70;92.40;;;;;;5115427;28;20528;-48
2021/12/03 19:53:48;;;;;;;15.20;8.70;;;3.70;92.30;;;;;;5115350;28;20115;-50
2021/12/03 19:56:14;;;;;;;9.20;6.65;;;3.70;92.30;;;;;;5115729;28;20034;-52
2021/12/03 19:58:39;;;;;;;13.35;7.50;;;3.80;92.30;;;;;;5115098;28;20067;-50
2021/12/03 20:01:06;;;;;;;11.85;7.25;;;3.80;92.20;;;;;;5113841;28;20143;-48
2021/12/03 20:03:32;;;;;;;13.88;7.45;;;3.80;92.20;;;;;;5113929;28;20519;-50
2021/12/03 20:05:57;;;;;;;8.85;6.40;;;3.80;91.70;;;;;;5113582;28;20502;-49
2021/12/03 20:08:25;;;;;;;5.28;4.75;;;3.80;91.50;;;;;;5115268;28;20028;-51
2021/12/03 20:10:51;;;;;;;13.82;6.32;;;3.80;91.40;;;;;;5115467;28;20360;-49
2021/12/03 20:13:22;;;;;;;12.15;5.68;;;3.80;91.50;;;;;;5115407;28;20046;-52
2021/12/03 20:18:40;;;;;;;9.70;4.60;;;3.90;90.90;;;;;;5115566;28;20102;-48
2021/12/03 20:21:08;;;;;;;9.48;5.20;;;3.80;91.00;;;;;;5115706;28;20027;-53
2021/12/03 20:26:28;;;;;;;5.32;4.03;;;3.90;90.70;;;;;;5116303;28;20031;-51
2021/12/03 20:28:59;;;;;;;6.50;3.83;;;3.90;90.50;;;;;;5115360;28;20027;-50
2021/12/03 20:31:27;;;;;;;6.57;4.57;;;3.90;90.50;;;;;;5115524;28;20028;-48
2021/12/03 20:36:49;;;;;;;8.70;4.43;;;4.00;90.00;;;;;;5091097;27;20520;-50
2021/12/03 20:39:23;;;;;;;14.68;5.97;;;4.00;90.20;;;;;;5115096;28;20102;-55
2021/12/03 20:41:55;;;;;;;5.93;3.53;;;4.00;89.60;;;;;;5114367;28;20042;-50
2021/12/03 20:49:22;;;;;;;5.57;3.88;;;4.00;89.70;;;;;;5115959;28;20015;-49
2021/12/03 20:54:35;;;;;;;7.45;4.97;;;4.00;89.80;;;;;;5114685;28;20379;-51
2021/12/03 20:57:21;;;;;;;4.35;3.50;;;4.10;89.90;;;;;;5115108;28;20028;-48
2021/12/03 21:10:30;;;;;;;4.22;3.30;;;4.00;89.70;;;;;;5114933;28;20102;-51
2021/12/03 21:12:59;;;;;;;7.60;4.30;;;4.00;89.70;;;;;;5114408;28;20096;-51
2021/12/03 21:15:30;;;;;;;6.72;4.43;;;4.00;89.80;;;;;;5114645;28;20085;-53
2021/12/03 21:20:30;;;;;;;5.63;3.20;;;4.00;89.80;;;;;;5114843;28;20028;-49
2021/12/03 21:23:03;;;;;;;6.63;4.05;;;4.00;89.80;;;;;;5113846;28;20036;-50
2021/12/03 21:25:34;;;;;;;5.28;4.18;;;4.00;89.70;;;;;;5114618;28;20069;-50
2021/12/03 21:28:16;;;;;;;5.55;3.35;;;4.00;89.50;;;;;;5114999;28;20020;-51
2021/12/03 21:44:03;;;;;;;9.77;3.33;;;4.00;89.70;;;;;;5114464;28;20027;-49
2021/12/03 21:46:32;;;;;;;4.53;2.67;;;3.90;90.20;;;;;;5114444;28;20103;-50
2021/12/03 21:48:59;;;;;;;6.25;3.58;;;3.80;90.80;;;;;;5113851;28;20510;-52
2021/12/03 21:51:25;;;;;;;7.28;3.65;;;3.80;91.10;;;;;;5113973;28;20459;-52
2021/12/03 21:53:53;;;;;;;8.15;4.95;;;3.80;91.40;;;;;;5114038;28;20486;-54
2021/12/03 21:56:21;;;;;;;6.43;5.20;;;3.80;91.60;;;;;;5113757;28;20016;-49
2021/12/03 21:58:47;;;;;;;5.00;3.83;;;3.90;91.60;;;;;;5113965;28;20035;-51
2021/12/03 22:01:13;;;;;;;9.25;3.50;;;3.90;91.20;;;;;;5113926;28;22383;-52
2021/12/03 22:03:38;;;;;;;20.75;3.72;;;4.00;90.70;;;;;;5113896;28;20026;-50
2021/12/03 22:06:04;;;;;;;3.03;2.38;;;4.00;90.30;;;;;;5113682;28;20016;-50
2021/12/03 22:08:31;;;;;;;4.07;3.00;;;3.90;90.30;;;;;;5113401;28;20075;-49
2021/12/03 22:10:57;;;;;;;5.47;3.55;;;3.90;90.20;;;;;;5113381;28;20027;-51
2021/12/03 22:13:24;;;;;;;4.05;3.05;;;3.90;90.20;;;;;;5113811;28;20032;-51
2021/12/03 22:15:54;;;;;;;9.45;4.32;;;3.90;90.30;;;;;;5114299;28;20460;-49
2021/12/03 22:18:26;;;;;;;;;;;4.00;90.00;;;;;;5112866;28;20027;-50
2021/12/03 22:20:58;;;;;;;4.90;3.00;;;4.00;90.00;;;;;;5113332;28;19995;-52
2021/12/03 22:23:24;;;;;;;8.40;3.55;;;4.00;89.90;;;;;;5115122;28;20499;-49
2021/12/03 22:25:51;;;;;;;5.60;3.63;;;4.00;89.90;;;;;;5118235;28;20019;-53
2021/12/03 22:28:18;;;;;;;5.80;3.55;;;3.90;90.30;;;;;;5117598;28;20019;-53
2021/12/03 22:30:44;;;;;;;4.15;3.25;;;3.90;90.30;;;;;;5116149;28;20026;-52
2021/12/03 22:33:12;;;;;;;6.18;3.58;;;4.00;90.40;;;;;;5117538;28;20434;-48
2021/12/03 22:35:39;;;;;;;3.53;3.10;;;4.00;90.40;;;;;;5117441;28;20046;-53
2021/12/03 22:38:07;;;;;;;7.47;3.72;;;3.90;90.60;;;;;;5117261;27;20425;-51
2021/12/03 22:40:34;;;;;;;4.55;3.45;;;3.80;91.10;;;;;;5117138;28;20024;-49
2021/12/03 22:43:00;;;;;;;8.05;3.63;;;3.80;91.10;;;;;;5117251;28;20024;-51
2021/12/03 22:45:33;;;;;;;6.10;3.08;;;3.80;91.30;;;;;;5117649;28;20028;-49
2021/12/03 22:48:01;;;;;;;5.65;3.53;;;3.80;91.50;;;;;;5117419;28;20030;-51
2021/12/03 22:52:56;;;;;;;5.05;3.38;;;3.80;91.50;;;;;;5118063;28;20181;-50
2021/12/03 22:55:22;;;;;;;5.88;4.20;;;3.90;91.40;;;;;;5116412;28;20099;-51
2021/12/03 22:57:48;;;;;;;7.82;4.07;;;3.90;91.50;;;;;;5115711;28;20024;-49
